Time;durP1;ratioP1;P1;durP2;ratioP2;P2;SDS_P1;SDS_P2;PMS_P1;PMS_P2;Temp;Humidity;BMP_temperature;BMP_pressure;BME280_temperature;BME280_humidity;BME280_pressure;Samples;Min_cycle;Max_cycle;Signal;HPM_P1;HPM_P2
2023/07/29 00:00:42;;;;;;;4.85;2.33;;;16.90;99.90;;;;;;5009341;28;20038;-79
2023/07/29 00:03:08;;;;;;;3.60;2.55;;;16.80;99.90;;;;;;5006877;28;20057;-79
2023/07/29 00:05:33;;;;;;;3.67;3.05;;;16.70;99.90;;;;;;5005639;28;20505;-84
2023/07/29 00:07:59;;;;;;;4.38;2.95;;;16.80;99.90;;;;;;5004803;28;20041;-80
2023/07/29 00:10:25;;;;;;;3.65;3.10;;;16.80;99.90;;;;;;5007196;28;20026;-79
2023/07/29 00:12:51;;;;;;;4.30;2.40;;;16.80;99.90;;;;;;5004802;28;20030;-79
2023/07/29 00:15:16;;;;;;;4.07;2.72;;;16.80;99.90;;;;;;5006619;28;20092;-79
2023/07/29 00:17:42;;;;;;;3.35;2.80;;;16.90;99.90;;;;;;5007771;28;20027;-79
2023/07/29 00:20:08;;;;;;;4.80;2.88;;;16.90;99.90;;;;;;5005478;28;20041;-79
2023/07/29 00:22:33;;;;;;;3.70;2.35;;;16.80;99.90;;;;;;5001474;28;20042;-79
2023/07/29 00:24:59;;;;;;;3.58;2.50;;;16.80;99.90;;;;;;5001218;28;20030;-79
2023/07/29 00:27:25;;;;;;;3.55;2.55;;;16.80;99.90;;;;;;5012559;28;20042;-79
2023/07/29 00:29:51;;;;;;;3.83;2.85;;;16.70;99.90;;;;;;5015872;28;20022;-79
2023/07/29 00:32:17;;;;;;;2.47;2.20;;;16.70;99.90;;;;;;5008601;28;20169;-80
2023/07/29 00:34:43;;;;;;;5.45;3.03;;;16.70;99.90;;;;;;5006907;28;20034;-80
2023/07/29 00:37:08;;;;;;;4.05;2.60;;;16.60;99.90;;;;;;5008456;28;20109;-79
2023/07/29 00:39:34;;;;;;;2.55;2.35;;;16.60;99.90;;;;;;5008678;28;20030;-79
2023/07/29 00:42:00;;;;;;;2.60;2.33;;;16.50;99.90;;;;;;5006114;28;20049;-79
2023/07/29 00:44:25;;;;;;;4.78;2.50;;;16.40;99.90;;;;;;5008241;28;20065;-79
2023/07/29 00:46:55;;;;;;;4.13;2.60;;;16.40;99.90;;;;;;5006645;28;20394;-87
2023/07/29 00:49:21;;;;;;;2.60;2.20;;;16.40;99.90;;;;;;5005172;28;20088;-82
2023/07/29 00:51:47;;;;;;;3.17;2.30;;;16.40;99.90;;;;;;5009063;28;20124;-80
2023/07/29 00:54:13;;;;;;;4.15;2.40;;;16.40;99.90;;;;;;5009322;28;20045;-80
2023/07/29 00:56:39;;;;;;;2.92;2.33;;;16.30;99.90;;;;;;5003685;28;20212;-79
2023/07/29 00:59:05;;;;;;;4.70;2.65;;;16.20;99.90;;;;;;5007727;28;20030;-79
2023/07/29 01:01:31;;;;;;;3.33;2.55;;;16.20;99.90;;;;;;5007187;28;20050;-82
2023/07/29 01:03:57;;;;;;;2.88;2.58;;;16.20;99.90;;;;;;4990680;28;20049;-82
2023/07/29 01:07:04;;;;;;;5.57;2.30;;;16.20;99.90;;;;;;5008057;28;20066;-83
2023/07/29 01:09:57;;;;;;;3.10;2.28;;;16.30;99.90;;;;;;4987848;28;20054;-83
2023/07/29 01:13:07;;;;;;;1.92;1.83;;;16.30;99.90;;;;;;5008294;28;20038;-82
2023/07/29 01:15:50;;;;;;;2.70;1.90;;;16.20;99.90;;;;;;5003669;28;20038;-82
2023/07/29 01:18:26;;;;;;;1.80;1.70;;;16.20;99.90;;;;;;5006255;28;20015;-82
2023/07/29 01:20:58;;;;;;;2.03;1.30;;;16.10;99.90;;;;;;5009966;28;20027;-82
2023/07/29 01:23:30;;;;;;;1.83;1.60;;;16.10;99.90;;;;;;5009121;28;20129;-81
2023/07/29 01:25:56;;;;;;;2.25;1.80;;;16.00;99.90;;;;;;5005101;28;20025;-81
2023/07/29 01:28:22;;;;;;;2.22;1.80;;;15.90;99.90;;;;;;5001891;28;20034;-82
2023/07/29 01:30:51;;;;;;;2.03;1.90;;;15.90;99.90;;;;;;5007145;28;20037;-81
2023/07/29 01:33:25;;;;;;;2.20;1.75;;;16.00;99.90;;;;;;5003547;28;20085;-82
2023/07/29 01:35:52;;;;;;;2.00;1.80;;;16.00;99.90;;;;;;5004635;28;20061;-82
2023/07/29 01:38:31;;;;;;;2.50;2.03;;;15.90;99.90;;;;;;5030912;23;20080;-30
2023/07/29 01:40:58;;;;;;;3.03;1.98;;;15.90;99.90;;;;;;5024919;28;20748;-31
2023/07/29 01:43:25;;;;;;;3.58;1.80;;;15.90;99.90;;;;;;5023159;28;20763;-31
2023/07/29 01:45:51;;;;;;;3.13;2.08;;;15.80;99.90;;;;;;5025794;28;20036;-34
2023/07/29 01:48:17;;;;;;;3.35;2.28;;;15.80;99.90;;;;;;5026307;28;20041;-32
2023/07/29 01:50:43;;;;;;;2.25;2.03;;;15.90;99.90;;;;;;5026396;28;20101;-32
2023/07/29 01:53:08;;;;;;;4.85;2.15;;;15.80;99.90;;;;;;5025904;28;20489;-33
2023/07/29 01:55:34;;;;;;;3.47;1.80;;;15.80;99.90;;;;;;5024050;28;20052;-31
2023/07/29 01:57:59;;;;;;;3.33;2.17;;;15.80;99.90;;;;;;5022628;28;20104;-32
2023/07/29 02:00:25;;;;;;;2.30;1.88;;;15.70;99.90;;;;;;5027877;28;20026;-32
2023/07/29 02:02:51;;;;;;;1.40;1.30;;;15.80;99.90;;;;;;5023538;28;20092;-31
2023/07/29 02:05:16;;;;;;;1.50;1.10;;;15.70;99.90;;;;;;5028323;28;20044;-34
2023/07/29 02:07:42;;;;;;;1.20;1.10;;;15.70;99.90;;;;;;5025513;28;20021;-32
2023/07/29 02:10:08;;;;;;;1.27;1.20;;;15.60;99.90;;;;;;5022441;28;20033;-31
2023/07/29 02:12:34;;;;;;;0.95;0.93;;;15.60;99.90;;;;;;5021949;28;20083;-31
2023/07/29 02:14:59;;;;;;;2.58;1.20;;;15.40;99.90;;;;;;5019962;28;20021;-31
2023/07/29 02:17:26;;;;;;;0.90;0.90;;;15.40;99.90;;;;;;5022967;28;20068;-33
2023/07/29 02:19:52;;;;;;;1.23;1.20;;;15.40;99.90;;;;;;5026938;28;20036;-31
2023/07/29 02:22:18;;;;;;;1.77;1.48;;;15.40;99.90;;;;;;5023298;28;20026;-31
2023/07/29 02:24:44;;;;;;;1.63;1.40;;;15.30;99.90;;;;;;5017162;28;20704;-32
2023/07/29 02:27:11;;;;;;;2.70;1.60;;;15.20;99.90;;;;;;5022922;28;20467;-31
2023/07/29 02:29:36;;;;;;;1.50;1.40;;;15.20;99.90;;;;;;5024068;28;20047;-31
2023/07/29 02:32:02;;;;;;;2.60;1.60;;;15.20;99.90;;;;;;5019757;28;20120;-31
2023/07/29 02:34:28;;;;;;;1.50;1.40;;;15.30;99.90;;;;;;5016598;28;20064;-31
2023/07/29 02:36:53;;;;;;;1.65;1.55;;;15.40;99.90;;;;;;5018545;28;20037;-32
2023/07/29 02:39:19;;;;;;;1.50;1.40;;;15.40;99.90;;;;;;5023156;28;20060;-32
2023/07/29 02:41:44;;;;;;;3.03;1.70;;;15.40;99.90;;;;;;5030147;28;20030;-31
2023/07/29 02:44:10;;;;;;;1.73;1.63;;;15.40;99.90;;;;;;5022957;28;20029;-32
2023/07/29 02:46:35;;;;;;;2.92;1.70;;;15.40;99.90;;;;;;5022405;28;20021;-31
2023/07/29 02:49:04;;;;;;;4.07;1.75;;;15.50;99.90;;;;;;5024361;28;20681;-32
2023/07/29 02:51:30;;;;;;;1.70;1.60;;;15.50;99.90;;;;;;5022964;28;20022;-32
2023/07/29 02:53:56;;;;;;;2.03;1.75;;;15.50;99.90;;;;;;5016179;28;20107;-41
2023/07/29 02:56:22;;;;;;;1.98;1.77;;;15.50;99.90;;;;;;5019853;28;20120;-41
2023/07/29 02:58:48;;;;;;;2.05;1.65;;;15.50;99.90;;;;;;5020676;28;20042;-40
2023/07/29 03:01:13;;;;;;;3.30;1.70;;;15.50;99.90;;;;;;5019436;28;20034;-40
2023/07/29 03:03:39;;;;;;;2.03;1.85;;;15.50;99.90;;;;;;5021778;28;20041;-41
2023/07/29 03:06:10;;;;;;;1.85;1.70;;;15.50;99.90;;;;;;5002977;28;20037;-41
2023/07/29 03:08:36;;;;;;;2.60;1.92;;;15.50;99.90;;;;;;5001109;28;20029;-41
2023/07/29 03:11:10;;;;;;;2.20;2.00;;;15.50;99.90;;;;;;5017516;28;20092;-41
2023/07/29 03:13:37;;;;;;;2.33;2.03;;;15.40;99.90;;;;;;5018297;28;20018;-41
2023/07/29 03:16:08;;;;;;;2.08;1.80;;;15.30;99.90;;;;;;5019548;28;20454;-41
2023/07/29 03:18:33;;;;;;;2.92;2.10;;;15.30;99.90;;;;;;5019513;28;20036;-39
2023/07/29 03:20:59;;;;;;;2.58;1.88;;;15.40;99.90;;;;;;5023231;28;20037;-42
2023/07/29 03:23:25;;;;;;;4.18;1.90;;;15.40;99.90;;;;;;5023118;28;20040;-32
2023/07/29 03:25:56;;;;;;;2.28;1.75;;;15.30;99.90;;;;;;5006574;28;20068;-32
2023/07/29 03:28:23;;;;;;;4.10;2.00;;;15.30;99.90;;;;;;5025645;28;20037;-32
2023/07/29 03:30:48;;;;;;;3.95;1.95;;;15.30;99.90;;;;;;5023818;28;20337;-32
2023/07/29 03:33:14;;;;;;;2.95;1.90;;;15.30;99.90;;;;;;5018446;28;20030;-32
2023/07/29 03:35:39;;;;;;;1.92;1.65;;;15.30;99.90;;;;;;5011705;28;20022;-32
2023/07/29 03:38:05;;;;;;;1.70;1.60;;;15.30;99.90;;;;;;5015396;28;20048;-31
2023/07/29 03:40:31;;;;;;;3.08;2.20;;;15.30;99.90;;;;;;5013814;28;20429;-35
2023/07/29 03:42:56;;;;;;;1.95;1.75;;;15.30;99.90;;;;;;4997967;28;20025;-36
2023/07/29 03:45:22;;;;;;;1.80;1.70;;;15.20;99.90;;;;;;5013180;28;20041;-32
2023/07/29 03:47:47;;;;;;;2.15;1.95;;;15.20;99.90;;;;;;5014589;28;20112;-35
2023/07/29 03:50:13;;;;;;;1.40;1.30;;;15.10;99.90;;;;;;5019024;28;20070;-36
2023/07/29 03:52:38;;;;;;;1.90;1.50;;;15.10;99.90;;;;;;5001602;28;20197;-35
2023/07/29 03:55:05;;;;;;;1.92;1.70;;;15.10;99.90;;;;;;5016746;28;20037;-34
2023/07/29 03:57:30;;;;;;;25.67;2.33;;;15.10;99.90;;;;;;5015076;28;20060;-35
2023/07/29 03:59:56;;;;;;;5.15;1.88;;;15.10;99.90;;;;;;5017207;28;20514;-35
2023/07/29 04:02:21;;;;;;;1.63;1.33;;;14.90;99.90;;;;;;5015367;28;20041;-33
2023/07/29 04:04:48;;;;;;;1.63;1.52;;;14.90;99.90;;;;;;5019822;28;20120;-31
2023/07/29 04:07:14;;;;;;;1.38;1.30;;;15.00;99.90;;;;;;5020168;28;20043;-31
2023/07/29 04:09:40;;;;;;;1.52;1.42;;;15.00;99.90;;;;;;5015224;28;20036;-32
2023/07/29 04:12:05;;;;;;;1.27;1.20;;;15.00;99.90;;;;;;5016848;28;20034;-34
2023/07/29 04:14:31;;;;;;;1.85;1.20;;;15.00;99.90;;;;;;5012080;28;20501;-38
2023/07/29 04:16:57;;;;;;;1.40;1.30;;;15.00;99.90;;;;;;5008871;28;20033;-40
2023/07/29 04:19:22;;;;;;;1.35;1.35;;;15.10;99.90;;;;;;5010352;28;20751;-38
2023/07/29 04:21:50;;;;;;;1.50;1.40;;;14.90;99.90;;;;;;5009455;28;20034;-35
2023/07/29 04:24:16;;;;;;;1.75;1.65;;;15.00;99.90;;;;;;5013881;28;20107;-41
2023/07/29 04:26:41;;;;;;;1.95;1.35;;;15.00;99.90;;;;;;5010907;28;20188;-36
2023/07/29 04:29:07;;;;;;;1.30;1.27;;;15.00;99.90;;;;;;5009873;28;20121;-40
2023/07/29 04:31:32;;;;;;;1.48;1.38;;;15.10;99.90;;;;;;5008726;28;20036;-42
2023/07/29 04:33:58;;;;;;;2.63;1.58;;;15.20;99.90;;;;;;5010484;28;20033;-38
2023/07/29 04:36:24;;;;;;;3.08;1.40;;;15.20;99.90;;;;;;5008306;28;21206;-39
2023/07/29 04:38:49;;;;;;;1.58;1.48;;;15.30;99.90;;;;;;5018775;28;20045;-41
2023/07/29 04:41:15;;;;;;;1.48;1.38;;;15.40;99.90;;;;;;5019024;28;20056;-39
2023/07/29 04:43:40;;;;;;;1.40;1.30;;;15.40;99.90;;;;;;5023997;28;20029;-40
2023/07/29 04:46:08;;;;;;;1.50;1.40;;;15.50;99.90;;;;;;5026359;28;20485;-41
2023/07/29 04:48:34;;;;;;;2.40;1.77;;;15.50;99.90;;;;;;5020691;28;20064;-42
2023/07/29 04:50:59;;;;;;;1.95;1.85;;;15.50;99.90;;;;;;5024105;28;20477;-41
2023/07/29 04:53:25;;;;;;;2.55;2.00;;;15.60;99.90;;;;;;5006030;28;20047;-41
2023/07/29 04:55:51;;;;;;;3.13;2.00;;;15.80;99.90;;;;;;5022789;28;20033;-41
2023/07/29 04:58:16;;;;;;;2.10;1.80;;;15.90;99.90;;;;;;5025424;28;20026;-37
2023/07/29 05:00:42;;;;;;;2.50;2.17;;;16.00;99.90;;;;;;5021592;28;20120;-38
2023/07/29 05:03:07;;;;;;;2.47;2.28;;;16.00;99.90;;;;;;5024034;28;20510;-41
2023/07/29 05:05:33;;;;;;;3.47;2.28;;;16.10;99.90;;;;;;5021875;28;20120;-38
2023/07/29 05:07:59;;;;;;;2.63;2.10;;;16.10;99.90;;;;;;5022303;28;20399;-39
2023/07/29 05:10:24;;;;;;;3.53;2.17;;;16.20;99.90;;;;;;5020357;28;20069;-40
2023/07/29 05:12:50;;;;;;;3.47;2.30;;;16.40;99.90;;;;;;5022928;28;20034;-41
2023/07/29 05:15:16;;;;;;;2.47;1.90;;;16.50;99.90;;;;;;5015053;28;20075;-38
2023/07/29 05:17:41;;;;;;;7.18;2.20;;;16.60;99.90;;;;;;5010019;28;20382;-39
2023/07/29 05:20:07;;;;;;;3.55;2.28;;;16.60;99.90;;;;;;5007207;28;20057;-42
2023/07/29 05:22:33;;;;;;;4.25;2.08;;;16.60;99.90;;;;;;5007854;28;20088;-40
2023/07/29 05:24:59;;;;;;;3.75;2.40;;;16.60;99.90;;;;;;5018590;28;20038;-39
2023/07/29 05:27:24;;;;;;;2.50;2.17;;;16.70;99.90;;;;;;5022234;28;20068;-38
2023/07/29 05:29:50;;;;;;;4.78;2.25;;;16.70;99.90;;;;;;5007250;28;20037;-40
2023/07/29 05:32:15;;;;;;;2.30;2.10;;;16.70;99.90;;;;;;5024206;28;20104;-41
2023/07/29 05:34:41;;;;;;;4.22;2.45;;;16.80;99.90;;;;;;5024941;28;20096;-31
2023/07/29 05:37:07;;;;;;;3.00;2.70;;;16.80;99.90;;;;;;5024986;28;20104;-31
2023/07/29 05:39:33;;;;;;;3.25;2.45;;;16.90;99.90;;;;;;5024045;28;20068;-35
2023/07/29 05:41:58;;;;;;;4.75;2.58;;;16.90;99.90;;;;;;5011055;28;20507;-32
2023/07/29 05:44:24;;;;;;;3.90;2.70;;;17.00;99.90;;;;;;5026627;28;20029;-39
2023/07/29 05:46:50;;;;;;;4.43;2.30;;;17.10;99.90;;;;;;5019786;28;20033;-42
2023/07/29 05:49:15;;;;;;;3.08;2.75;;;17.10;99.90;;;;;;5021356;28;20100;-41
2023/07/29 05:51:41;;;;;;;3.22;2.45;;;17.20;99.90;;;;;;5020410;28;20083;-35
2023/07/29 05:54:06;;;;;;;3.30;3.00;;;17.20;99.90;;;;;;5022734;28;20025;-41
2023/07/29 05:56:32;;;;;;;3.08;2.78;;;17.20;99.90;;;;;;5020300;28;20040;-41
2023/07/29 05:58:58;;;;;;;4.53;3.00;;;17.30;99.90;;;;;;5021090;28;20113;-42
2023/07/29 06:01:23;;;;;;;4.07;2.95;;;17.40;99.90;;;;;;5021863;28;20045;-41
2023/07/29 06:03:49;;;;;;;4.53;2.63;;;17.40;99.90;;;;;;5019007;28;20504;-42
2023/07/29 06:06:15;;;;;;;3.28;2.55;;;17.40;99.90;;;;;;5020065;28;20549;-41
2023/07/29 06:08:41;;;;;;;4.47;3.20;;;17.40;99.90;;;;;;5021617;28;20033;-40
2023/07/29 06:11:06;;;;;;;4.35;3.28;;;17.50;99.90;;;;;;5019833;28;20022;-39
2023/07/29 06:13:32;;;;;;;3.83;2.75;;;17.50;99.90;;;;;;5020238;28;20064;-38
2023/07/29 06:15:58;;;;;;;3.97;2.90;;;17.40;99.90;;;;;;5022482;28;20018;-42
2023/07/29 06:18:24;;;;;;;4.43;3.10;;;17.40;99.90;;;;;;5024210;28;20033;-38
2023/07/29 06:20:50;;;;;;;3.10;2.50;;;17.40;99.90;;;;;;5019357;28;20044;-41
2023/07/29 06:23:16;;;;;;;3.25;2.75;;;17.40;99.90;;;;;;5020549;28;20129;-41
2023/07/29 06:25:42;;;;;;;4.20;2.75;;;17.40;99.90;;;;;;5017205;28;20455;-41
2023/07/29 06:28:09;;;;;;;3.10;2.50;;;17.40;99.90;;;;;;5022381;28;20029;-36
2023/07/29 06:30:34;;;;;;;4.05;2.78;;;17.40;99.90;;;;;;5021919;28;20462;-41
2023/07/29 06:33:00;;;;;;;5.75;3.17;;;17.40;99.90;;;;;;5022013;28;20029;-41
2023/07/29 06:35:26;;;;;;;4.30;2.92;;;17.30;99.90;;;;;;5021222;28;20040;-41
2023/07/29 06:37:51;;;;;;;4.32;2.90;;;17.30;99.90;;;;;;5024487;28;20037;-41
2023/07/29 06:40:17;;;;;;;3.72;2.78;;;17.30;99.90;;;;;;5024558;28;20076;-40
2023/07/29 06:42:42;;;;;;;3.65;2.78;;;17.30;99.90;;;;;;5022023;28;20021;-38
2023/07/29 06:45:08;;;;;;;4.45;3.03;;;17.30;99.90;;;;;;5018049;28;20033;-35
2023/07/29 06:47:34;;;;;;;4.70;2.72;;;17.40;99.90;;;;;;5012433;28;20138;-31
2023/07/29 06:50:00;;;;;;;5.70;3.13;;;17.40;99.90;;;;;;5025868;28;20037;-32
2023/07/29 06:52:26;;;;;;;6.38;3.05;;;17.50;99.90;;;;;;5021983;28;20095;-34
2023/07/29 06:54:51;;;;;;;3.67;2.67;;;17.50;99.90;;;;;;5022370;28;20793;-32
2023/07/29 06:57:17;;;;;;;3.17;2.88;;;17.60;99.90;;;;;;5019156;28;20026;-32
2023/07/29 06:59:42;;;;;;;3.78;2.85;;;17.60;99.90;;;;;;5019758;28;20391;-32
2023/07/29 07:02:08;;;;;;;2.70;2.30;;;17.70;99.90;;;;;;5018605;28;20453;-33
2023/07/29 07:04:34;;;;;;;3.80;2.88;;;17.80;99.90;;;;;;5020643;28;20053;-33
2023/07/29 07:06:59;;;;;;;3.53;2.70;;;17.90;99.90;;;;;;5016935;28;20040;-34
2023/07/29 07:09:25;;;;;;;3.00;2.42;;;18.00;99.90;;;;;;5017240;28;20041;-35
2023/07/29 07:11:50;;;;;;;3.72;2.50;;;18.20;99.90;;;;;;5020676;28;20051;-35
2023/07/29 07:14:16;;;;;;;4.40;2.75;;;18.50;99.90;;;;;;5019850;28;20116;-33
2023/07/29 07:16:42;;;;;;;3.35;2.50;;;18.70;99.90;;;;;;5021017;28;20017;-33
2023/07/29 07:19:07;;;;;;;3.05;2.50;;;18.80;99.90;;;;;;5022099;28;20080;-32
2023/07/29 07:21:33;;;;;;;3.80;2.65;;;19.10;99.90;;;;;;5020639;28;20029;-32
2023/07/29 07:23:58;;;;;;;4.43;2.58;;;19.20;99.90;;;;;;5019960;28;20190;-34
2023/07/29 07:26:24;;;;;;;4.10;2.92;;;19.30;99.90;;;;;;5023060;28;20045;-32
2023/07/29 07:28:51;;;;;;;4.60;2.53;;;19.40;99.90;;;;;;5024762;28;20036;-31
2023/07/29 07:31:17;;;;;;;2.72;2.50;;;19.40;99.90;;;;;;5022536;28;20026;-31
2023/07/29 07:33:42;;;;;;;4.18;2.85;;;19.40;99.90;;;;;;5022101;28;20504;-32
2023/07/29 07:36:08;;;;;;;4.55;2.30;;;19.50;99.90;;;;;;5021195;28;20482;-32
2023/07/29 07:38:33;;;;;;;3.70;2.60;;;19.50;99.90;;;;;;5024668;28;20046;-34
2023/07/29 07:40:59;;;;;;;3.58;2.78;;;19.50;99.90;;;;;;5022943;28;20079;-32
2023/07/29 07:43:25;;;;;;;3.40;2.10;;;19.60;99.90;;;;;;5025936;28;20033;-32
2023/07/29 07:45:57;;;;;;;3.80;2.45;;;19.60;99.90;;;;;;5021730;28;20040;-32
2023/07/29 07:48:22;;;;;;;4.07;2.47;;;19.60;99.90;;;;;;5025346;28;20695;-33
2023/07/29 07:50:48;;;;;;;4.22;2.63;;;19.60;99.90;;;;;;5026152;28;20025;-34
2023/07/29 07:53:14;;;;;;;3.60;2.45;;;19.60;99.90;;;;;;5022374;28;20038;-32
2023/07/29 07:55:39;;;;;;;3.30;2.85;;;19.60;99.90;;;;;;5022625;28;20057;-31
2023/07/29 07:58:05;;;;;;;4.65;3.15;;;19.70;99.90;;;;;;5026886;28;20529;-31
2023/07/29 08:00:30;;;;;;;3.05;2.75;;;19.70;99.90;;;;;;5025085;28;20029;-33
2023/07/29 08:02:56;;;;;;;3.95;2.85;;;19.70;99.90;;;;;;5025681;28;20029;-31
2023/07/29 08:05:22;;;;;;;5.32;2.80;;;19.80;99.90;;;;;;5024560;28;20061;-30
2023/07/29 08:07:47;;;;;;;3.67;2.80;;;19.80;99.90;;;;;;5028471;28;20083;-33
2023/07/29 08:10:13;;;;;;;3.33;2.70;;;19.90;99.90;;;;;;5011051;28;20029;-31
2023/07/29 08:12:38;;;;;;;3.60;2.90;;;20.00;99.90;;;;;;5022306;28;20026;-33
2023/07/29 08:15:05;;;;;;;3.55;2.70;;;20.00;99.90;;;;;;5025247;28;20030;-30
2023/07/29 08:17:31;;;;;;;5.45;3.13;;;20.10;99.90;;;;;;5023745;28;20469;-32
2023/07/29 08:19:56;;;;;;;2.92;2.58;;;20.10;99.90;;;;;;5026948;28;20064;-30
2023/07/29 08:22:22;;;;;;;4.90;3.22;;;20.20;99.90;;;;;;5023491;28;20075;-32
2023/07/29 08:24:47;;;;;;;4.15;3.03;;;20.20;99.90;;;;;;5019775;28;20030;-30
2023/07/29 08:27:13;;;;;;;3.17;2.70;;;20.20;99.90;;;;;;5023229;28;20592;-30
2023/07/29 08:29:39;;;;;;;4.30;2.85;;;20.30;99.90;;;;;;5027679;28;20390;-33
2023/07/29 08:32:04;;;;;;;3.97;2.50;;;20.60;99.90;;;;;;5007492;28;20390;-33
2023/07/29 08:34:30;;;;;;;4.25;2.60;;;20.90;99.90;;;;;;5022348;28;20033;-33
2023/07/29 08:36:55;;;;;;;5.40;2.90;;;21.00;99.90;;;;;;5026935;28;20036;-33
2023/07/29 08:39:22;;;;;;;3.83;2.92;;;21.00;99.90;;;;;;5025776;28;20049;-30
2023/07/29 08:42:11;;;;;;;4.57;3.47;;;21.00;99.90;;;;;;5026541;28;20025;-31
2023/07/29 08:44:42;;;;;;;5.15;2.80;;;21.40;99.90;;;;;;5023642;28;20030;-30
2023/07/29 08:47:08;;;;;;;4.45;2.90;;;21.70;99.90;;;;;;5026403;28;20037;-30
2023/07/29 08:49:34;;;;;;;3.95;2.45;;;21.90;99.90;;;;;;5020888;28;20380;-31
2023/07/29 08:52:01;;;;;;;3.95;3.00;;;22.10;99.90;;;;;;5023436;28;20049;-31
2023/07/29 08:54:26;;;;;;;3.90;3.17;;;22.40;99.90;;;;;;5022267;28;20026;-32
2023/07/29 08:56:52;;;;;;;3.13;2.70;;;22.50;99.90;;;;;;5003331;28;20021;-31
2023/07/29 08:59:19;;;;;;;4.85;2.55;;;22.60;99.90;;;;;;5023135;28;20026;-31
2023/07/29 09:01:47;;;;;;;3.17;2.70;;;22.60;99.90;;;;;;5005009;28;20042;-31
2023/07/29 09:04:12;;;;;;;4.80;2.80;;;22.50;99.90;;;;;;5023027;28;20040;-41
2023/07/29 09:06:39;;;;;;;4.97;2.90;;;22.50;99.90;;;;;;5022479;28;20037;-40
2023/07/29 09:09:07;;;;;;;3.23;2.87;;;22.60;99.90;;;;;;5021436;28;20505;-39
2023/07/29 09:11:33;;;;;;;;;;;22.70;99.90;;;;;;5018215;28;20048;-42
2023/07/29 09:13:59;;;;;;;4.95;3.10;;;22.70;99.90;;;;;;5038708;28;19916;-42
2023/07/29 09:16:25;;;;;;;3.90;2.90;;;22.50;99.90;;;;;;5025354;28;20037;-40
2023/07/29 09:18:51;;;;;;;3.92;2.83;;;22.70;99.90;;;;;;5008454;28;20036;-42
2023/07/29 09:21:22;;;;;;;3.58;2.65;;;23.10;99.90;;;;;;5024072;28;20041;-37
2023/07/29 09:23:50;;;;;;;3.65;3.08;;;23.40;99.90;;;;;;5022363;28;20041;-40
2023/07/29 09:26:23;;;;;;;3.75;3.03;;;23.50;99.90;;;;;;5022842;28;20076;-40
2023/07/29 09:28:52;;;;;;;3.80;2.83;;;23.40;99.90;;;;;;5015410;28;20633;-37
2023/07/29 09:31:23;;;;;;;4.30;3.15;;;23.10;99.90;;;;;;5019800;28;20395;-42
2023/07/29 09:33:49;;;;;;;3.47;2.80;;;23.00;99.90;;;;;;5017701;28;20028;-41
2023/07/29 09:36:15;;;;;;;5.10;2.90;;;22.70;99.90;;;;;;5022833;28;20042;-42
2023/07/29 09:38:40;;;;;;;3.25;2.80;;;22.30;99.90;;;;;;5018346;28;20048;-39
2023/07/29 09:41:06;;;;;;;3.97;3.00;;;22.10;99.90;;;;;;5023637;28;20032;-40
2023/07/29 09:43:33;;;;;;;4.25;2.80;;;21.90;99.90;;;;;;5022780;28;20116;-37
2023/07/29 09:46:03;;;;;;;4.40;2.90;;;21.70;99.90;;;;;;5021355;28;20025;-40
2023/07/29 09:48:33;;;;;;;6.63;3.20;;;21.40;99.90;;;;;;5025147;28;20475;-40
2023/07/29 09:50:59;;;;;;;3.53;2.95;;;21.20;99.90;;;;;;5023639;28;20037;-41
2023/07/29 09:53:24;;;;;;;6.90;2.88;;;21.10;99.90;;;;;;5007001;28;20384;-39
2023/07/29 09:55:53;;;;;;;2.92;2.63;;;20.60;99.90;;;;;;5021022;28;20139;-42
2023/07/29 09:58:27;;;;;;;5.22;2.60;;;20.40;99.90;;;;;;5019439;28;20112;-38
2023/07/29 10:00:52;;;;;;;4.53;2.30;;;20.10;99.90;;;;;;5017612;28;20041;-41
2023/07/29 10:03:22;;;;;;;3.83;2.47;;;20.00;99.90;;;;;;5002261;28;20411;-40
2023/07/29 10:05:48;;;;;;;13.45;3.70;;;19.80;99.90;;;;;;4996428;28;20037;-41
2023/07/29 10:08:14;;;;;;;6.28;2.38;;;19.50;99.90;;;;;;4994181;28;20438;-41
2023/07/29 10:10:42;;;;;;;6.95;2.72;;;19.20;99.90;;;;;;4998008;28;20083;-38
2023/07/29 10:13:07;;;;;;;;;;;19.00;99.90;;;;;;4999105;28;20026;-39
2023/07/29 10:15:33;;;;;;;3.97;2.00;;;19.20;99.90;;;;;;4999978;28;19934;-40
2023/07/29 10:18:01;;;;;;;4.05;2.20;;;19.10;99.90;;;;;;4997419;28;20155;-39
2023/07/29 10:20:26;;;;;;;3.97;2.30;;;19.20;99.90;;;;;;4998999;28;20039;-39
2023/07/29 10:22:56;;;;;;;4.75;2.00;;;19.30;99.90;;;;;;4993813;28;20517;-40
2023/07/29 10:25:29;;;;;;;3.25;1.88;;;19.40;99.90;;;;;;4999702;28;20053;-34
2023/07/29 10:28:08;;;;;;;4.28;2.78;;;19.50;99.90;;;;;;4998040;28;20034;-34
2023/07/29 10:30:34;;;;;;;2.80;2.25;;;19.50;99.90;;;;;;4999464;28;20394;-31
2023/07/29 10:33:04;;;;;;;2.30;1.88;;;19.70;99.90;;;;;;5001474;28;20026;-30
2023/07/29 10:35:30;;;;;;;1.83;1.63;;;19.90;99.90;;;;;;5002113;28;20030;-30
2023/07/29 10:37:56;;;;;;;2.42;1.83;;;20.10;99.90;;;;;;5000181;28;20697;-31
2023/07/29 10:40:21;;;;;;;2.97;2.13;;;20.10;99.90;;;;;;4998937;28;20144;-31
2023/07/29 10:43:09;;;;;;;2.63;1.83;;;20.30;99.90;;;;;;4997627;28;20037;-31
2023/07/29 10:45:44;;;;;;;3.53;2.38;;;20.50;99.90;;;;;;5002103;28;20057;-31
2023/07/29 10:48:34;;;;;;;3.65;2.47;;;21.00;99.90;;;;;;4994520;28;20038;-31
2023/07/29 10:51:24;;;;;;;3.05;2.03;;;21.50;99.90;;;;;;5000337;28;20029;-30
2023/07/29 10:54:11;;;;;;;2.92;2.35;;;21.90;99.90;;;;;;5001646;28;20038;-30
2023/07/29 10:56:41;;;;;;;2.60;2.10;;;22.20;99.90;;;;;;5007981;28;20030;-30
2023/07/29 10:59:12;;;;;;;3.28;2.80;;;22.60;99.90;;;;;;5005596;28;20045;-31
2023/07/29 11:01:43;;;;;;;4.90;2.67;;;22.40;99.90;;;;;;5003028;28;20034;-31
2023/07/29 11:04:24;;;;;;;4.28;2.75;;;22.30;99.90;;;;;;5000451;28;20038;-30
2023/07/29 11:07:05;;;;;;;2.75;2.30;;;22.80;99.90;;;;;;5017431;28;20029;-30
2023/07/29 11:09:41;;;;;;;2.80;2.47;;;23.30;99.90;;;;;;5006581;28;20038;-30
2023/07/29 11:12:35;;;;;;;4.22;2.17;;;23.60;99.90;;;;;;5006700;28;20030;-34
2023/07/29 11:15:09;;;;;;;3.10;2.42;;;24.00;99.90;;;;;;5002964;28;20021;-32
2023/07/29 11:17:36;;;;;;;2.55;2.33;;;24.40;99.90;;;;;;5004604;28;20036;-30
2023/07/29 11:20:03;;;;;;;3.53;2.38;;;24.50;99.90;;;;;;5002047;28;20036;-32
2023/07/29 11:22:30;;;;;;;3.85;2.60;;;24.60;99.90;;;;;;5005498;28;20045;-33
2023/07/29 11:24:55;;;;;;;2.88;2.22;;;24.30;99.90;;;;;;5003990;28;20026;-32
2023/07/29 11:27:21;;;;;;;4.95;2.70;;;24.00;99.90;;;;;;5002007;28;20042;-30
2023/07/29 11:29:47;;;;;;;3.15;2.53;;;23.50;99.90;;;;;;5004769;28;20034;-30
2023/07/29 11:32:13;;;;;;;4.13;2.42;;;23.20;99.90;;;;;;5014639;28;20415;-31
2023/07/29 11:34:40;;;;;;;4.30;2.70;;;23.00;99.90;;;;;;5002604;28;20060;-32
2023/07/29 11:37:06;;;;;;;3.00;2.63;;;22.90;99.90;;;;;;5002736;28;20026;-31
2023/07/29 11:39:33;;;;;;;4.72;2.50;;;22.80;99.90;;;;;;5004776;28;20052;-34
2023/07/29 11:41:58;;;;;;;3.60;3.00;;;22.80;99.90;;;;;;5003397;28;20041;-33
2023/07/29 11:44:25;;;;;;;13.95;9.63;;;22.80;99.90;;;;;;5001339;28;20026;-31
2023/07/29 11:46:51;;;;;;;3.92;3.45;;;22.70;99.90;;;;;;5003661;28;20034;-29
2023/07/29 11:49:16;;;;;;;6.32;4.45;;;22.50;99.90;;;;;;5003180;28;20038;-30
2023/07/29 11:51:42;;;;;;;3.72;2.97;;;22.60;99.90;;;;;;5000812;28;20057;-31
2023/07/29 11:54:08;;;;;;;3.92;2.90;;;22.30;99.90;;;;;;5000704;28;20057;-32
2023/07/29 11:56:35;;;;;;;4.30;2.83;;;22.30;99.90;;;;;;5000769;28;20054;-31
2023/07/29 11:59:02;;;;;;;4.05;2.60;;;22.30;99.90;;;;;;4987619;28;20033;-31
2023/07/29 12:01:29;;;;;;;3.08;2.50;;;22.60;99.90;;;;;;5005651;28;20042;-30
2023/07/29 12:03:56;;;;;;;4.03;3.00;;;22.80;99.90;;;;;;5005403;28;20038;-35
2023/07/29 12:06:24;;;;;;;5.10;2.45;;;23.10;99.90;;;;;;5003910;28;20031;-30
2023/07/29 12:08:50;;;;;;;2.85;2.40;;;23.40;99.90;;;;;;5004001;28;20552;-30
2023/07/29 12:11:16;;;;;;;2.63;2.28;;;23.60;99.90;;;;;;5001525;28;20108;-31
2023/07/29 12:13:42;;;;;;;3.20;2.55;;;24.00;99.90;;;;;;5003263;28;20436;-30
2023/07/29 12:16:08;;;;;;;3.50;2.53;;;24.10;99.90;;;;;;4989019;28;20029;-31
2023/07/29 12:18:33;;;;;;;2.78;2.30;;;24.40;99.90;;;;;;5003592;28;20418;-30
2023/07/29 12:21:00;;;;;;;3.00;2.25;;;24.30;99.90;;;;;;5004268;28;20022;-30
2023/07/29 12:23:26;;;;;;;2.55;2.25;;;24.50;99.90;;;;;;5004236;28;20029;-30
2023/07/29 12:25:59;;;;;;;2.78;2.50;;;24.80;99.90;;;;;;5004499;28;20034;-33
2023/07/29 12:28:25;;;;;;;2.88;2.40;;;24.80;99.90;;;;;;5003919;28;20426;-32
2023/07/29 12:30:57;;;;;;;2.80;2.28;;;24.90;99.90;;;;;;5003798;28;20037;-30
2023/07/29 12:33:34;;;;;;;3.13;2.25;;;24.80;99.90;;;;;;4987174;28;20377;-31
2023/07/29 12:36:00;;;;;;;2.90;2.47;;;24.80;99.90;;;;;;4986889;28;20426;-32
2023/07/29 12:38:29;;;;;;;2.75;2.50;;;24.90;99.90;;;;;;5007584;28;20137;-32
2023/07/29 12:40:55;;;;;;;3.58;2.47;;;25.20;99.90;;;;;;5002255;28;20029;-34
2023/07/29 12:43:20;;;;;;;2.90;2.22;;;25.50;99.90;;;;;;5000077;28;20398;-33
2023/07/29 12:45:46;;;;;;;2.13;1.92;;;25.30;99.90;;;;;;4998553;28;20030;-41
2023/07/29 12:48:12;;;;;;;2.90;2.25;;;25.30;99.90;;;;;;4999764;28;20037;-41